Time;durP1;ratioP1;P1;durP2;ratioP2;P2;SDS_P1;SDS_P2;PMS_P1;PMS_P2;Temp;Humidity;BMP_temperature;BMP_pressure;BME280_temperature;BME280_humidity;BME280_pressure;Samples;Min_cycle;Max_cycle;Signal;HPM_P1;HPM_P2
2021/06/02 00:00:12;;;;;;;9.95;6.87;;;;;;;6.24;66.01;97587.73;1702131;81;25710;-91
2021/06/02 00:02:55;;;;;;;15.40;7.00;;;;;;;6.21;66.11;97584.06;1702331;81;25263;-80
2021/06/02 00:05:23;;;;;;;11.83;6.53;;;;;;;6.21;66.21;97582.72;1702331;81;25657;-91
2021/06/02 00:07:50;;;;;;;11.10;6.37;;;;;;;6.10;66.07;97580.79;1702305;81;25639;-92
2021/06/02 00:10:19;;;;;;;8.20;6.50;;;;;;;6.08;66.17;97582.81;1702325;81;27874;-93
2021/06/02 00:12:47;;;;;;;8.65;5.72;;;;;;;6.05;66.21;97575.63;1739168;81;25646;-93
2021/06/02 00:15:14;;;;;;;10.93;6.08;;;;;;;6.04;66.34;97586.02;1765812;81;25679;-89
2021/06/02 00:17:41;;;;;;;9.60;5.80;;;;;;;6.02;66.36;97580.86;1765863;81;25878;-94
2021/06/02 00:20:10;;;;;;;8.23;6.47;;;;;;;6.02;66.45;97576.00;1765839;81;25649;-93
2021/06/02 00:22:39;;;;;;;8.68;6.45;;;;;;;6.00;66.38;97573.50;1765955;81;26958;-94
2021/06/02 00:25:07;;;;;;;12.75;6.28;;;;;;;5.96;66.43;97568.16;1766035;81;25610;-93
2021/06/02 00:27:36;;;;;;;10.20;5.80;;;;;;;5.93;66.50;97575.20;1765967;81;25522;-88
2021/06/02 00:30:07;;;;;;;10.50;6.95;;;;;;;5.91;66.60;97575.91;1743430;81;25676;-96
2021/06/02 00:32:35;;;;;;;8.23;5.95;;;;;;;5.87;66.75;97571.88;1725133;81;25606;-89
2021/06/02 00:35:04;;;;;;;9.83;6.65;;;;;;;5.78;66.82;97572.45;1702451;81;27326;-94
2021/06/02 00:37:31;;;;;;;12.15;6.33;;;;;;;5.80;66.98;97569.06;1723010;82;25527;-94
2021/06/02 00:39:58;;;;;;;9.93;6.55;;;;;;;5.83;66.99;97573.23;1735030;81;25689;-86
2021/06/02 00:42:32;;;;;;;12.37;6.97;;;;;;;5.82;66.95;97574.75;1717359;81;25388;-92
2021/06/02 00:45:00;;;;;;;10.05;6.62;;;;;;;5.77;67.07;97572.12;1702584;81;25698;-85
2021/06/02 00:47:27;;;;;;;10.40;6.60;;;;;;;5.77;67.08;97576.64;1702606;81;27358;-88
2021/06/02 00:49:54;;;;;;;8.15;6.30;;;;;;;5.74;67.04;97574.31;1706447;81;25683;-94
2021/06/02 00:52:20;;;;;;;9.58;6.37;;;;;;;5.65;67.14;97573.53;1747348;80;25248;-92
2021/06/02 00:54:47;;;;;;;10.43;6.33;;;;;;;5.58;67.27;97574.39;1730440;80;26321;-83
2021/06/02 00:57:19;;;;;;;14.93;7.15;;;;;;;5.57;67.40;97574.89;1733903;81;25330;-89
2021/06/02 01:00:10;;;;;;;10.03;6.90;;;;;;;5.60;67.30;97575.06;1770343;79;27343;-94
2021/06/02 01:02:39;;;;;;;11.65;6.47;;;;;;;5.52;67.34;97571.09;1739547;80;25263;-85
2021/06/02 01:05:07;;;;;;;11.63;6.87;;;;;;;5.48;67.35;97575.13;1779568;80;25792;-91
2021/06/02 01:07:34;;;;;;;9.55;6.80;;;;;;;5.45;67.40;97570.95;1779768;80;25919;-95
2021/06/02 01:10:01;;;;;;;7.87;6.17;;;;;;;5.43;67.46;97575.13;1780043;80;25747;-96
2021/06/02 01:12:30;;;;;;;7.70;6.05;;;;;;;5.42;67.60;97572.16;1779879;80;27454;-94
2021/06/02 01:14:58;;;;;;;8.15;6.08;;;;;;;5.40;67.57;97571.99;1779654;80;25830;-95
2021/06/02 01:17:28;;;;;;;7.17;5.87;;;;;;;5.37;67.57;97572.33;1779937;80;25394;-88
2021/06/02 01:19:58;;;;;;;10.28;6.00;;;;;;;5.33;67.59;97570.50;1779696;80;26168;-84
2021/06/02 01:22:27;;;;;;;10.53;5.75;;;;;;;5.31;67.60;97567.69;1779770;80;26463;-95
2021/06/02 01:24:54;;;;;;;8.73;5.40;;;;;;;5.28;67.67;97574.22;1779713;80;27324;-94
2021/06/02 01:27:20;;;;;;;8.28;5.60;;;;;;;5.27;67.72;97575.73;1779676;80;25610;-95
2021/06/02 01:29:50;;;;;;;7.83;5.37;;;;;;;5.26;67.79;97574.06;1772704;80;25712;-91
2021/06/02 01:32:51;;;;;;;10.63;5.67;;;;;;;5.21;67.68;97573.23;1750681;80;25763;-93
2021/06/02 01:35:32;;;;;;;8.63;6.42;;;;;;;5.17;67.75;97583.97;1733452;80;25645;-94
2021/06/02 01:38:33;;;;;;;7.87;5.22;;;;;;;5.06;67.94;97583.84;1754536;80;27948;-86
2021/06/02 01:41:16;;;;;;;9.78;5.78;;;;;;;5.04;68.00;97581.84;1764409;79;25231;-80
2021/06/02 01:44:38;;;;;;;8.90;5.37;;;;;;;4.98;68.11;97591.87;1764527;79;25246;-87
2021/06/02 01:47:42;;;;;;;8.20;5.12;;;;;;;4.99;68.11;97592.71;1764550;79;26321;-88
2021/06/02 01:50:22;;;;;;;8.88;5.85;;;;;;;4.96;68.07;97595.72;1780237;79;25629;-80
2021/06/02 01:53:20;;;;;;;10.23;5.90;;;;;;;4.93;68.12;97599.60;1742290;80;28055;-83
2021/06/02 01:55:52;;;;;;;9.38;5.60;;;;;;;4.81;68.09;97601.47;1692717;84;25256;-82
2021/06/02 01:58:45;;;;;;;12.85;5.42;;;;;;;4.77;68.27;97605.48;1670349;83;26458;-84
2021/06/02 02:02:01;;;;;;;7.15;4.85;;;;;;;4.77;68.29;97605.48;1697717;82;26453;-83
2021/06/02 02:04:48;;;;;;;12.13;5.75;;;;;;;4.75;68.38;97604.30;1699004;82;25334;-92
2021/06/02 02:08:01;;;;;;;8.33;5.30;;;;;;;4.72;68.45;97609.98;1698957;82;27377;-86
2021/06/02 02:10:52;;;;;;;10.30;5.12;;;;;;;4.67;68.54;97609.17;1696860;82;25652;-88
2021/06/02 02:13:43;;;;;;;9.18;5.33;;;;;;;4.63;68.57;97608.34;1704867;82;25730;-85
2021/06/02 02:16:30;;;;;;;9.93;5.97;;;;;;;4.59;68.71;97611.84;1717839;82;25661;-94
2021/06/02 02:19:20;;;;;;;9.08;5.45;;;;;;;4.55;68.71;97609.19;1698492;82;25646;-94
2021/06/02 02:22:07;;;;;;;8.25;5.20;;;;;;;4.57;68.77;97609.03;1719261;82;27338;-83
2021/06/02 02:24:57;;;;;;;8.13;5.12;;;;;;;4.55;68.71;97615.87;1696216;82;25779;-85
2021/06/02 02:27:50;;;;;;;7.95;5.40;;;;;;;4.55;68.68;97612.37;1690947;82;25754;-85
2021/06/02 02:30:41;;;;;;;;;;;;;;;4.49;68.76;97612.52;1723080;82;25666;-88
2021/06/02 02:33:34;;;;;;;9.38;4.92;;;;;;;4.37;69.00;97614.36;1768831;80;25563;-81
2021/06/02 02:36:29;;;;;;;7.37;5.17;;;;;;;4.31;69.07;97610.54;1800335;78;27295;-94
2021/06/02 02:39:37;;;;;;;6.33;4.67;;;;;;;4.30;69.17;97619.05;1808596;78;25207;-85
2021/06/02 02:42:29;;;;;;;6.55;4.70;;;;;;;4.31;69.11;97617.22;1785734;80;26032;-83
2021/06/02 02:45:16;;;;;;;7.97;5.37;;;;;;;4.26;69.05;97620.88;1813344;77;25547;-87
2021/06/02 02:48:20;;;;;;;6.80;5.20;;;;;;;4.23;69.16;97625.21;1804161;78;25554;-93
2021/06/02 02:51:30;;;;;;;7.55;5.62;;;;;;;4.22;69.36;97628.91;1798565;78;27344;-77
2021/06/02 02:54:10;;;;;;;8.48;5.45;;;;;;;4.20;69.35;97633.09;1810952;78;25608;-88
2021/06/02 02:57:13;;;;;;;13.53;6.00;;;;;;;4.24;69.50;97637.08;1787708;78;25950;-82
2021/06/02 02:59:54;;;;;;;12.13;5.97;;;;;;;4.27;69.57;97627.89;1786223;80;25658;-90
2021/06/02 03:02:51;;;;;;;11.53;5.20;;;;;;;4.32;69.60;97630.92;1786041;79;25606;-85
2021/06/02 03:05:25;;;;;;;10.40;5.17;;;;;;;4.35;69.57;97635.41;1809927;78;27546;-86
2021/06/02 03:08:13;;;;;;;11.00;5.75;;;;;;;4.34;69.60;97637.77;1821587;77;25631;-77
2021/06/02 03:10:45;;;;;;;8.43;5.62;;;;;;;4.34;69.68;97638.27;1818478;78;25595;-81
2021/06/02 03:13:44;;;;;;;8.60;6.17;;;;;;;4.34;69.82;97642.28;1786470;79;25654;-84
2021/06/02 03:16:16;;;;;;;11.43;6.95;;;;;;;4.35;69.86;97642.09;1803648;78;25605;-85
2021/06/02 03:19:15;;;;;;;11.05;6.50;;;;;;;4.39;69.85;97641.27;1801622;79;27480;-89
2021/06/02 03:22:04;;;;;;;8.48;5.33;;;;;;;4.40;69.90;97641.59;1800375;78;25737;-84
2021/06/02 03:24:48;;;;;;;9.75;5.33;;;;;;;4.43;69.80;97644.45;1817840;78;25572;-96
2021/06/02 03:27:41;;;;;;;9.60;6.00;;;;;;;4.41;69.80;97643.27;1797108;78;25623;-94
2021/06/02 03:30:19;;;;;;;14.20;7.10;;;;;;;4.43;69.86;97649.30;1772698;80;25991;-92
2021/06/02 03:33:28;;;;;;;19.45;7.35;;;;;;;4.44;69.94;97644.28;1787927;79;27415;-95
2021/06/02 03:36:06;;;;;;;18.77;7.60;;;;;;;4.50;69.94;97652.95;1775663;80;25813;-90
2021/06/02 03:38:58;;;;;;;11.20;6.80;;;;;;;4.50;70.05;97644.94;1784167;79;25314;-88
2021/06/02 03:41:53;;;;;;;10.98;6.65;;;;;;;4.53;70.09;97656.64;1779064;79;25698;-92
2021/06/02 03:44:34;;;;;;;11.05;6.03;;;;;;;4.56;70.05;97660.32;1776064;80;25652;-93
2021/06/02 03:47:24;;;;;;;16.00;7.62;;;;;;;4.57;70.03;97659.33;1774618;80;28114;-83
2021/06/02 03:50:08;;;;;;;16.48;7.95;;;;;;;4.56;70.08;97656.81;1783504;79;25698;-94
2021/06/02 03:52:57;;;;;;;19.60;8.38;;;;;;;4.61;70.17;97660.64;1774959;79;25709;-85
2021/06/02 03:55:50;;;;;;;14.38;7.60;;;;;;;4.63;70.22;97661.31;1738939;79;25720;-79
2021/06/02 03:58:58;;;;;;;16.12;7.05;;;;;;;4.66;70.32;97654.30;1795826;79;26671;-83
2021/06/02 04:01:53;;;;;;;10.10;6.62;;;;;;;4.73;70.37;97663.80;1796514;79;27410;-94
2021/06/02 04:04:28;;;;;;;14.00;6.83;;;;;;;4.77;70.50;97660.30;1806512;78;25796;-94
2021/06/02 04:07:07;;;;;;;18.30;8.50;;;;;;;4.84;70.56;97661.28;1786295;79;25642;-88
2021/06/02 04:09:48;;;;;;;20.68;8.68;;;;;;;4.89;70.49;97663.80;1817705;78;25552;-89
2021/06/02 04:12:46;;;;;;;15.08;7.30;;;;;;;4.96;70.54;97662.60;1820315;78;25587;-91
2021/06/02 04:15:14;;;;;;;15.28;7.60;;;;;;;5.01;70.54;97666.95;1820707;78;28127;-81
2021/06/02 04:17:45;;;;;;;16.35;7.65;;;;;;;5.06;70.55;97668.13;1821238;78;25588;-91
2021/06/02 04:20:13;;;;;;;22.07;8.65;;;;;;;5.12;70.64;97664.42;1820348;78;25567;-96
2021/06/02 04:22:41;;;;;;;18.48;8.65;;;;;;;5.15;70.64;97668.09;1793012;78;25680;-93
2021/06/02 04:25:10;;;;;;;13.55;7.25;;;;;;;5.20;70.63;97670.58;1796581;78;25180;-93
2021/06/02 04:27:40;;;;;;;13.80;8.08;;;;;;;5.24;70.60;97675.94;1821098;78;27320;-82
2021/06/02 04:30:08;;;;;;;12.10;7.67;;;;;;;5.29;70.66;97666.90;1820974;78;25581;-94
2021/06/02 04:32:44;;;;;;;12.10;7.50;;;;;;;5.36;70.71;97670.55;1821239;78;25502;-83
2021/06/02 04:35:15;;;;;;;18.35;8.43;;;;;;;5.42;70.73;97671.71;1813052;78;26344;-84
2021/06/02 04:37:42;;;;;;;16.25;8.15;;;;;;;5.47;70.70;97669.33;1805871;78;25708;-79
2021/06/02 04:40:11;;;;;;;14.55;7.17;;;;;;;5.55;70.68;97675.19;1821226;77;27313;-82
2021/06/02 04:42:40;;;;;;;18.25;6.78;;;;;;;5.62;70.68;97672.12;1821267;78;25623;-96
2021/06/02 04:45:12;;;;;;;12.50;7.10;;;;;;;5.67;70.67;97669.78;1821272;78;25579;-91
2021/06/02 04:47:41;;;;;;;13.90;7.28;;;;;;;5.75;70.68;97681.78;1820371;78;25916;-83
2021/06/02 04:50:35;;;;;;;10.70;6.58;;;;;;;5.83;70.77;97689.77;1818610;78;25641;-80
2021/06/02 04:53:42;;;;;;;12.15;7.40;;;;;;;5.88;70.88;97685.24;1826822;78;27429;-80
2021/06/02 04:56:40;;;;;;;14.75;7.55;;;;;;;5.95;70.93;97693.77;1831238;78;25243;-84
2021/06/02 04:59:32;;;;;;;10.32;7.03;;;;;;;6.03;70.89;97692.41;1830966;78;25151;-96
2021/06/02 05:02:12;;;;;;;13.68;9.48;;;;;;;6.09;70.93;97690.34;1831154;78;25650;-96
2021/06/02 05:05:02;;;;;;;11.03;8.20;;;;;;;6.17;71.00;97681.91;1831279;78;25363;-83
2021/06/02 05:07:55;;;;;;;14.25;8.70;;;;;;;6.24;71.07;97682.39;1831146;78;27339;-89
2021/06/02 05:10:27;;;;;;;;;;;;;;;6.30;71.02;97686.19;1791042;79;25736;-91
2021/06/02 05:13:12;;;;;;;;;;;;;;;6.36;71.16;97687.67;1770098;81;26345;-94
2021/06/02 05:16:31;;;;;;;10.18;6.62;;;;;;;6.41;71.28;97690.63;1798834;78;25375;-94
2021/06/02 05:22:33;;;;;;;10.13;6.80;;;;;;;6.57;71.05;97694.22;1810176;78;27345;-94
2021/06/02 05:25:25;;;;;;;13.25;7.65;;;;;;;6.65;71.17;97696.32;1816262;78;25714;-93
2021/06/02 05:28:17;;;;;;;12.18;7.67;;;;;;;6.72;71.28;97698.63;1831216;78;25745;-95
2021/06/02 05:31:30;;;;;;;18.15;8.43;;;;;;;6.80;71.32;97697.22;1779843;78;25581;-92
2021/06/02 05:34:54;;;;;;;15.95;8.38;;;;;;;6.91;71.41;97699.13;1830241;78;25286;-94
2021/06/02 05:38:18;;;;;;;14.93;7.90;;;;;;;7.02;71.44;97698.70;1830978;78;27395;-95
2021/06/02 05:41:10;;;;;;;15.58;7.60;;;;;;;7.19;71.69;97702.91;1832242;78;25477;-81
2021/06/02 05:44:27;;;;;;;12.65;7.25;;;;;;;7.30;71.52;97693.06;1831749;78;25188;-95
2021/06/02 05:47:40;;;;;;;11.57;7.60;;;;;;;7.43;71.55;97697.80;1831349;78;25820;-93
2021/06/02 05:50:42;;;;;;;12.28;6.90;;;;;;;7.58;71.56;97688.73;1831334;78;25738;-86
2021/06/02 05:53:34;;;;;;;13.35;7.90;;;;;;;7.72;71.34;97695.63;1831328;78;27324;-85
2021/06/02 05:56:43;;;;;;;10.78;6.47;;;;;;;7.86;70.86;97695.59;1830887;78;25605;-93
2021/06/02 05:59:35;;;;;;;10.05;7.42;;;;;;;8.02;70.58;97698.59;1809772;78;25850;-93
2021/06/02 06:02:24;;;;;;;10.28;6.35;;;;;;;8.16;70.12;97700.42;1831281;78;25444;-95
2021/06/02 06:05:11;;;;;;;11.18;6.97;;;;;;;8.27;70.00;97697.24;1831319;78;25716;-92
2021/06/02 06:08:21;;;;;;;13.83;7.42;;;;;;;8.39;69.79;97703.50;1822253;78;27375;-94
2021/06/02 06:11:08;;;;;;;7.65;5.97;;;;;;;8.50;69.88;97705.17;1831142;78;25220;-90
2021/06/02 06:13:59;;;;;;;11.18;6.58;;;;;;;8.61;69.84;97710.56;1806472;78;25630;-90
2021/06/02 06:17:15;;;;;;;10.72;6.45;;;;;;;8.70;69.87;97716.13;1831277;78;26283;-86
2021/06/02 06:20:22;;;;;;;7.47;6.03;;;;;;;8.80;69.91;97705.07;1831446;78;25655;-91
2021/06/02 06:23:14;;;;;;;10.70;6.08;;;;;;;8.92;70.33;97700.83;1831514;78;27332;-95
2021/06/02 06:25:52;;;;;;;7.10;6.00;;;;;;;9.04;70.45;97701.97;1819383;78;25229;-87
2021/06/02 06:28:42;;;;;;;7.60;4.92;;;;;;;9.16;70.45;97701.77;1830762;78;25469;-84
2021/06/02 06:31:25;;;;;;;9.80;6.40;;;;;;;9.28;70.52;97702.06;1830777;78;25665;-87
2021/06/02 06:33:55;;;;;;;7.75;6.30;;;;;;;9.44;70.44;97706.30;1830661;78;25645;-81
2021/06/02 06:36:25;;;;;;;10.28;5.78;;;;;;;9.59;70.55;97701.63;1831655;78;27323;-86
2021/06/02 06:39:17;;;;;;;9.53;5.22;;;;;;;9.81;70.84;97695.64;1831056;78;25563;-92
2021/06/02 06:41:48;;;;;;;7.00;4.83;;;;;;;9.99;70.50;97693.26;1831058;78;25596;-89
2021/06/02 06:44:16;;;;;;;8.75;4.33;;;;;;;10.16;69.73;97693.20;1830644;78;25635;-91
2021/06/02 06:46:45;;;;;;;6.62;4.47;;;;;;;10.29;69.20;97688.41;1830742;78;26082;-83
2021/06/02 06:49:13;;;;;;;5.70;4.55;;;;;;;10.43;68.76;97690.13;1832452;78;27301;-92
2021/06/02 06:51:43;;;;;;;5.70;4.80;;;;;;;10.60;68.44;97685.19;1831594;78;25690;-85
2021/06/02 06:54:12;;;;;;;7.90;5.10;;;;;;;10.75;68.51;97687.16;1822748;78;25707;-86
2021/06/02 06:56:42;;;;;;;8.35;5.08;;;;;;;10.90;68.25;97679.71;1799214;78;25362;-84
2021/06/02 06:59:09;;;;;;;5.67;4.65;;;;;;;11.07;67.96;97686.91;1800453;78;25614;-89
2021/06/02 07:01:39;;;;;;;7.30;5.15;;;;;;;11.22;67.54;97692.10;1821336;77;27277;-85
2021/06/02 07:04:07;;;;;;;8.45;5.10;;;;;;;11.35;67.57;97685.34;1795948;78;25648;-89
2021/06/02 07:06:37;;;;;;;7.33;4.80;;;;;;;11.51;67.37;97680.83;1803375;78;25593;-96
2021/06/02 07:09:06;;;;;;;6.17;4.87;;;;;;;11.66;67.21;97677.89;1811684;78;26134;-91
2021/06/02 07:11:40;;;;;;;6.37;4.62;;;;;;;11.82;67.18;97674.25;1785939;78;25621;-93
2021/06/02 07:14:09;;;;;;;7.15;4.45;;;;;;;12.00;67.17;97667.31;1786577;79;28037;-93
2021/06/02 07:16:38;;;;;;;7.33;4.80;;;;;;;12.19;67.32;97674.54;1786046;80;25649;-92
2021/06/02 07:19:08;;;;;;;8.38;5.22;;;;;;;12.37;67.16;97679.23;1780985;79;25643;-87
2021/06/02 07:21:38;;;;;;;7.05;4.45;;;;;;;12.48;67.07;97678.02;1785295;80;26338;-83
2021/06/02 07:24:05;;;;;;;4.92;3.50;;;;;;;12.64;66.58;97678.05;1807472;78;25641;-86
2021/06/02 07:26:33;;;;;;;8.90;4.78;;;;;;;12.79;65.53;97676.39;1809957;78;28382;-91
2021/06/02 07:29:01;;;;;;;23.02;10.93;;;;;;;12.93;64.09;97675.22;1785563;78;25670;-90
2021/06/02 07:31:27;;;;;;;10.35;4.28;;;;;;;13.15;63.20;97672.50;1810422;78;25267;-84
2021/06/02 07:33:54;;;;;;;3.60;2.60;;;;;;;13.38;62.12;97678.66;1804996;78;25650;-86
2021/06/02 07:36:21;;;;;;;3.67;2.80;;;;;;;13.50;60.62;97674.17;1796004;78;25657;-86
2021/06/02 07:38:47;;;;;;;7.45;4.03;;;;;;;13.58;60.40;97673.87;1804763;78;27278;-82
2021/06/02 07:41:14;;;;;;;22.65;10.03;;;;;;;13.68;59.98;97678.77;1798115;78;25729;-86
2021/06/02 07:43:41;;;;;;;12.68;6.67;;;;;;;13.73;59.29;97676.23;1812337;78;25739;-90
2021/06/02 07:46:08;;;;;;;10.75;3.45;;;;;;;13.83;58.85;97678.42;1796909;78;25667;-88
2021/06/02 07:48:34;;;;;;;6.15;3.30;;;;;;;13.99;58.42;97670.52;1784903;79;25206;-84
2021/06/02 07:51:01;;;;;;;3.17;2.35;;;;;;;14.32;58.23;97671.46;1806797;78;27320;-81
2021/06/02 07:53:28;;;;;;;4.65;2.67;;;;;;;14.75;57.40;97664.52;1799549;78;25894;-84
2021/06/02 07:55:55;;;;;;;3.92;2.50;;;;;;;15.39;56.47;97660.14;1832909;78;25576;-95
2021/06/02 07:58:22;;;;;;;3.37;2.33;;;;;;;16.03;56.09;97657.00;1812024;76;26121;-87
2021/06/02 08:00:49;;;;;;;7.45;2.55;;;;;;;16.73;54.84;97664.14;1823064;78;25567;-87
2021/06/02 08:03:15;;;;;;;3.72;1.92;;;;;;;17.38;53.98;97664.48;1799398;79;27287;-88
2021/06/02 08:05:42;;;;;;;5.78;2.15;;;;;;;17.99;53.04;97665.42;1804173;78;25651;-87
2021/06/02 08:08:09;;;;;;;5.28;2.30;;;;;;;18.60;51.90;97668.91;1817871;78;25583;-91
2021/06/02 08:10:36;;;;;;;5.60;2.30;;;;;;;19.20;51.79;97667.34;1822803;78;25355;-89
2021/06/02 08:13:03;;;;;;;1.50;1.40;;;;;;;19.63;50.19;97663.63;1811690;78;25586;-91
2021/06/02 08:15:30;;;;;;;6.80;2.75;;;;;;;19.89;48.91;97662.44;1832748;78;27903;-89
2021/06/02 08:17:59;;;;;;;3.83;2.37;;;;;;;20.00;47.70;97668.25;1805343;78;25676;-94
2021/06/02 08:20:26;;;;;;;4.12;2.20;;;;;;;19.87;47.60;97664.06;1833006;78;25624;-88
2021/06/02 08:22:53;;;;;;;4.40;2.10;;;;;;;20.19;47.71;97664.50;1832735;78;25791;-92
2021/06/02 08:25:20;;;;;;;2.85;1.87;;;;;;;20.55;46.74;97672.36;1832688;78;25634;-93
2021/06/02 08:27:47;;;;;;;1.80;1.70;;;;;;;20.70;45.76;97667.77;1832845;76;28023;-85
2021/06/02 08:30:15;;;;;;;5.00;1.95;;;;;;;20.90;44.29;97667.53;1808222;78;25589;-87
2021/06/02 08:32:42;;;;;;;3.65;2.00;;;;;;;21.35;44.35;97665.44;1820500;78;26540;-90
2021/06/02 08:35:12;;;;;;;3.12;2.00;;;;;;;21.80;43.87;97682.45;1801477;78;25718;-89
2021/06/02 08:37:40;;;;;;;4.58;2.10;;;;;;;22.22;43.08;97650.48;1818209;78;25537;-91
2021/06/02 08:40:08;;;;;;;7.03;1.85;;;;;;;22.91;42.28;97674.43;1826775;78;28017;-94
2021/06/02 08:42:35;;;;;;;4.78;1.95;;;;;;;23.38;41.57;97671.64;1799542;78;25199;-91
2021/06/02 08:45:02;;;;;;;3.08;2.15;;;;;;;23.81;41.20;97662.45;1826634;78;25624;-93
2021/06/02 08:47:29;;;;;;;12.35;2.47;;;;;;;24.28;40.78;97668.61;1833261;78;25661;-93
2021/06/02 08:49:56;;;;;;;3.60;2.30;;;;;;;24.59;39.54;97653.08;1832848;78;25643;-92
2021/06/02 08:52:23;;;;;;;2.92;2.55;;;;;;;24.53;39.22;97654.25;1821798;78;27907;-90
2021/06/02 08:54:50;;;;;;;2.70;2.00;;;;;;;24.70;38.42;97661.49;1812219;78;25600;-88
2021/06/02 08:57:17;;;;;;;3.37;1.98;;;;;;;24.95;38.26;97655.66;1804837;78;25625;-84
2021/06/02 08:59:44;;;;;;;2.90;1.92;;;;;;;25.36;37.97;97661.37;1780631;80;25676;-89
2021/06/02 09:02:10;;;;;;;4.55;1.92;;;;;;;25.47;37.18;97654.59;1785509;79;25464;-89
2021/06/02 09:04:37;;;;;;;3.02;1.80;;;;;;;25.66;36.84;97657.89;1785556;79;27323;-88
2021/06/02 09:07:06;;;;;;;2.27;1.72;;;;;;;25.88;36.79;97652.52;1810242;77;25643;-87
2021/06/02 09:09:34;;;;;;;5.22;2.10;;;;;;;26.08;36.51;97654.11;1796962;78;25584;-87
2021/06/02 09:12:08;;;;;;;4.37;1.77;;;;;;;26.06;35.93;97654.97;1820735;78;25733;-86
2021/06/02 09:14:38;;;;;;;6.25;2.20;;;;;;;26.10;35.33;97655.41;1820863;78;25228;-93
2021/06/02 09:17:10;;;;;;;5.53;2.02;;;;;;;25.88;34.79;97657.22;1798660;78;27392;-87
2021/06/02 09:19:39;;;;;;;;;;;;;;;25.77;35.05;97649.67;1783927;80;25693;-92
2021/06/02 09:22:16;;;;;;;4.85;2.10;;;;;;;25.89;33.36;97649.19;1779867;80;25649;-92
2021/06/02 09:24:55;;;;;;;4.05;2.00;;;;;;;25.63;34.55;97651.58;1785407;80;25656;-87
2021/06/02 09:27:49;;;;;;;5.00;1.55;;;;;;;25.65;34.33;97658.45;1774869;80;25399;-84
2021/06/02 09:30:22;;;;;;;2.50;2.10;;;;;;;25.19;34.00;97658.34;1793431;78;27866;-85
2021/06/02 09:32:58;;;;;;;4.97;2.25;;;;;;;25.15;34.08;97654.52;1801379;78;25647;-86
2021/06/02 09:35:43;;;;;;;2.05;1.85;;;;;;;24.93;33.91;97662.59;1793026;78;25672;-90
2021/06/02 09:38:26;;;;;;;4.15;1.95;;;;;;;24.51;33.48;97657.89;1789317;78;26452;-88
2021/06/02 09:40:56;;;;;;;3.95;2.20;;;;;;;24.37;33.79;97663.30;1799729;78;25617;-86
2021/06/02 09:43:34;;;;;;;4.85;2.00;;;;;;;24.12;33.91;97656.65;1813529;77;28019;-88
2021/06/02 09:46:09;;;;;;;4.67;1.85;;;;;;;24.33;33.98;97660.84;1800227;78;25584;-86
2021/06/02 09:49:00;;;;;;;5.33;2.12;;;;;;;24.38;33.58;97651.97;1795810;78;25632;-86
2021/06/02 09:51:39;;;;;;;2.62;1.80;;;;;;;24.47;33.63;97653.51;1808788;77;26300;-90
2021/06/02 09:54:09;;;;;;;3.22;1.92;;;;;;;24.63;33.65;97656.34;1820454;78;25602;-90
2021/06/02 09:56:44;;;;;;;4.17;1.87;;;;;;;24.94;33.33;97658.16;1832940;78;27349;-88
2021/06/02 09:59:14;;;;;;;3.22;1.87;;;;;;;25.19;33.30;97655.58;1811410;78;25617;-88
2021/06/02 10:02:00;;;;;;;3.40;2.12;;;;;;;25.21;32.66;97650.58;1805670;78;25684;-89
2021/06/02 10:04:35;;;;;;;3.77;1.77;;;;;;;25.26;32.05;97647.72;1812398;78;25681;-92
2021/06/02 10:07:04;;;;;;;5.20;2.10;;;;;;;25.20;31.33;97651.70;1805392;78;25684;-89
2021/06/02 10:09:35;;;;;;;29.90;4.53;;;;;;;25.27;31.95;97650.75;1812056;78;27336;-91
2021/06/02 10:12:12;;;;;;;4.85;2.08;;;;;;;25.49;32.47;97652.31;1813244;78;25226;-88
2021/06/02 10:14:44;;;;;;;6.45;2.52;;;;;;;25.66;32.43;97655.13;1813773;78;25359;-86
2021/06/02 10:17:37;;;;;;;2.67;1.60;;;;;;;25.76;31.33;97641.94;1754771;79;25623;-87
2021/06/02 10:20:13;;;;;;;5.58;2.00;;;;;;;25.65;31.70;97642.42;1817698;78;25586;-88
2021/06/02 10:22:43;;;;;;;4.87;2.10;;;;;;;25.72;31.37;97641.49;1832958;78;27964;-86
2021/06/02 10:25:11;;;;;;;3.00;1.95;;;;;;;25.86;31.77;97645.08;1800318;78;25664;-88
2021/06/02 10:27:38;;;;;;;1.90;1.80;;;;;;;25.93;30.87;97639.17;1823621;78;25622;-87
2021/06/02 10:30:08;;;;;;;4.75;1.98;;;;;;;25.88;30.33;97640.07;1812596;78;25711;-87
2021/06/02 10:32:34;;;;;;;5.92;2.08;;;;;;;25.67;29.67;97634.09;1832064;76;25634;-89
2021/06/02 10:35:01;;;;;;;6.83;2.25;;;;;;;25.48;30.49;97638.23;1825480;78;27299;-91
2021/06/02 10:37:29;;;;;;;4.42;2.40;;;;;;;25.61;31.41;97639.44;1810017;78;25595;-92
2021/06/02 10:40:04;;;;;;;3.25;1.62;;;;;;;25.83;31.14;97647.09;1810790;78;25651;-87
2021/06/02 10:42:36;;;;;;;5.47;2.30;;;;;;;25.92;30.71;97638.34;1817117;78;25691;-90
2021/06/02 10:45:18;;;;;;;2.30;1.98;;;;;;;25.67;30.38;97641.56;1806790;78;25621;-90
2021/06/02 10:47:55;;;;;;;4.00;2.17;;;;;;;25.64;30.61;97640.22;1833187;77;27413;-93
2021/06/02 10:50:38;;;;;;;3.58;1.70;;;;;;;25.78;30.61;97636.94;1833016;77;25727;-90
2021/06/02 10:53:24;;;;;;;6.10;1.80;;;;;;;25.81;31.02;97639.66;1814530;78;25574;-94
2021/06/02 10:56:00;;;;;;;4.30;1.92;;;;;;;25.59;30.35;97643.06;1811984;78;25677;-90
2021/06/02 10:58:38;;;;;;;3.92;1.87;;;;;;;25.19;30.68;97640.39;1832792;76;25252;-87
2021/06/02 11:01:10;;;;;;;5.35;2.15;;;;;;;24.84;30.75;97643.08;1830165;78;28255;-88
2021/06/02 11:03:39;;;;;;;2.40;1.80;;;;;;;24.81;30.86;97640.91;1809617;78;25911;-87
2021/06/02 11:06:20;;;;;;;6.72;4.58;;;;;;;24.82;29.81;97645.31;1803319;78;25753;-91
2021/06/02 11:08:56;;;;;;;6.15;2.47;;;;;;;24.77;30.34;97646.20;1826308;78;26065;-89
2021/06/02 11:11:41;;;;;;;8.93;2.55;;;;;;;24.70;30.41;97644.38;1805285;78;25628;-92
2021/06/02 11:14:20;;;;;;;5.85;2.47;;;;;;;24.45;30.55;97640.56;1830804;78;28370;-87
2021/06/02 11:16:50;;;;;;;5.60;1.92;;;;;;;24.43;31.37;97641.96;1766676;79;25648;-87
2021/06/02 11:19:19;;;;;;;10.63;2.90;;;;;;;24.69;31.54;97631.69;1786819;78;25602;-88
2021/06/02 11:21:59;;;;;;;4.80;2.20;;;;;;;24.93;31.69;97634.98;1830910;76;25693;-91
2021/06/02 11:24:37;;;;;;;3.55;2.60;;;;;;;25.04;31.40;97630.95;1820589;78;25608;-85
2021/06/02 11:27:20;;;;;;;4.00;2.20;;;;;;;25.12;31.56;97631.64;1832696;78;28056;-82
2021/06/02 11:29:53;;;;;;;4.42;2.05;;;;;;;25.28;31.76;97635.81;1830657;77;25561;-90
2021/06/02 11:32:33;;;;;;;5.50;2.45;;;;;;;25.47;31.52;97642.16;1799532;79;25982;-92
2021/06/02 11:35:04;;;;;;;2.67;2.20;;;;;;;25.65;30.93;97635.52;1826411;78;26315;-90
2021/06/02 11:37:36;;;;;;;5.20;2.40;;;;;;;25.43;30.42;97640.28;1832869;78;25667;-89
2021/06/02 11:40:11;;;;;;;3.93;2.20;;;;;;;25.34;30.50;97636.01;1830276;76;27960;-89
2021/06/02 11:42:46;;;;;;;4.37;2.30;;;;;;;25.26;30.81;97634.47;1814710;78;25664;-84
2021/06/02 11:45:17;;;;;;;3.25;2.33;;;;;;;25.40;31.30;97640.88;1832717;78;25526;-86
2021/06/02 11:47:48;;;;;;;3.05;2.17;;;;;;;25.52;30.65;97633.50;1831857;78;25730;-91
2021/06/02 11:50:24;;;;;;;2.27;2.08;;;;;;;25.59;30.67;97632.56;1825668;78;33546;-89
2021/06/02 11:53:00;;;;;;;4.15;2.33;;;;;;;25.61;29.71;97631.70;1816596;77;27322;-90
2021/06/02 11:55:29;;;;;;;2.80;2.30;;;;;;;25.36;29.52;97642.03;1803471;78;25655;-88
2021/06/02 11:57:56;;;;;;;3.12;2.17;;;;;;;25.10;28.74;97636.67;1829685;76;25546;-88
2021/06/02 12:00:28;;;;;;;3.17;1.95;;;;;;;25.00;29.84;97627.12;1821598;78;25725;-87
2021/06/02 12:03:01;;;;;;;3.52;2.20;;;;;;;25.07;29.91;97625.65;1812727;78;25608;-87
2021/06/02 12:05:34;;;;;;;4.42;1.98;;;;;;;24.88;30.06;97626.72;1820956;78;27907;-89
2021/06/02 12:08:13;;;;;;;4.28;1.92;;;;;;;24.76;30.33;97626.61;1822680;78;25654;-88
2021/06/02 12:10:46;;;;;;;6.28;2.00;;;;;;;24.65;29.90;97622.34;1813142;78;25626;-85
2021/06/02 12:13:19;;;;;;;5.87;2.37;;;;;;;24.70;29.63;97622.84;1807705;78;26372;-86
2021/06/02 12:15:56;;;;;;;5.58;1.85;;;;;;;24.73;30.01;97627.23;1812529;78;25787;-87
2021/06/02 12:18:45;;;;;;;3.98;2.10;;;;;;;24.89;29.86;97620.91;1832610;78;27296;-90
2021/06/02 12:21:23;;;;;;;3.90;2.00;;;;;;;25.00;29.77;97618.84;1785037;78;25577;-90
2021/06/02 12:24:06;;;;;;;3.75;2.33;;;;;;;25.13;30.50;97626.38;1830318;78;25575;-89
2021/06/02 12:26:40;;;;;;;7.75;2.58;;;;;;;25.28;30.67;97623.37;1832973;78;25662;-85
2021/06/02 12:29:16;;;;;;;3.92;2.20;;;;;;;25.30;30.88;97628.61;1809408;78;25662;-85
2021/06/02 12:31:52;;;;;;;6.00;2.12;;;;;;;25.17;31.01;97634.34;1832827;78;28018;-89